createdAt,value
2019-02-10T00:00:02.939Z,7.97
2019-02-10T00:02:39.736Z,5.30
2019-02-10T00:05:11.255Z,5.47
2019-02-10T00:07:43.374Z,10.73
2019-02-10T00:10:13.716Z,6.47
2019-02-10T00:12:46.497Z,8.40
2019-02-10T00:15:21.640Z,7.37
2019-02-10T00:21:20.558Z,7.03
2019-02-10T00:24:12.902Z,10.27
2019-02-10T00:26:42.760Z,6.17
2019-02-10T00:29:13.780Z,4.87
2019-02-10T00:31:43.645Z,4.80
2019-02-10T00:34:13.492Z,6.23
2019-02-10T00:36:44.924Z,5.63
2019-02-10T00:39:18.132Z,7.90
2019-02-10T00:41:53.282Z,4.43
2019-02-10T00:44:27.180Z,5.27
2019-02-10T00:47:00.233Z,6.73
2019-02-10T00:49:31.648Z,6.70
2019-02-10T00:52:03.027Z,4.57
2019-02-10T00:54:34.312Z,5.67
2019-02-10T00:57:04.304Z,3.93
2019-02-10T00:59:35.714Z,4.77
2019-02-10T01:02:07.955Z,3.97
2019-02-10T01:04:44.889Z,3.57
2019-02-10T01:07:16.319Z,6.10
2019-02-10T01:09:48.248Z,6.80
2019-02-10T01:12:20.358Z,4.63
2019-02-10T01:14:51.510Z,4.20
2019-02-10T01:17:21.411Z,7.17
2019-02-10T01:19:55.122Z,10.97
2019-02-10T01:22:25.626Z,5.73
2019-02-10T01:25:00.764Z,5.47
2019-02-10T01:27:31.318Z,6.17
2019-02-10T01:30:03.247Z,12.67
2019-02-10T01:32:33.703Z,7.10
2019-02-10T01:35:05.308Z,8.73
2019-02-10T01:37:38.650Z,8.63
2019-02-10T01:40:11.035Z,9.20
2019-02-10T01:42:48.124Z,8.67
2019-02-10T01:45:19.361Z,10.00
2019-02-10T01:47:49.272Z,9.83
2019-02-10T01:50:21.928Z,9.93
2019-02-10T01:52:52.283Z,8.00
2019-02-10T01:55:23.899Z,8.97
2019-02-10T01:57:57.603Z,10.03
2019-02-10T02:00:28.498Z,9.57
2019-02-10T02:02:59.393Z,10.43
2019-02-10T02:05:29.257Z,9.87
2019-02-10T02:07:59.926Z,10.67
2019-02-10T02:10:29.927Z,7.60
2019-02-10T02:13:02.029Z,7.00
2019-02-10T02:15:34.051Z,10.03
2019-02-10T02:18:04.443Z,9.13
2019-02-10T02:20:34.293Z,9.80
2019-02-10T02:23:10.451Z,12.63
2019-02-10T02:25:41.842Z,8.20
2019-02-10T02:28:12.531Z,7.23
2019-02-10T02:30:46.954Z,8.77
2019-02-10T02:33:28.334Z,9.77
2019-02-10T02:36:01.899Z,10.50
2019-02-10T02:38:33.160Z,6.47
2019-02-10T02:41:07.094Z,7.83
2019-02-10T02:43:36.645Z,9.97
2019-02-10T02:46:06.502Z,7.93
2019-02-10T02:48:38.239Z,14.10
2019-02-10T02:51:09.442Z,7.23
2019-02-10T02:53:39.901Z,10.43
2019-02-10T02:56:11.243Z,15.17
2019-02-10T02:58:41.253Z,7.73
2019-02-10T03:01:18.550Z,11.03
2019-02-10T03:03:52.698Z,10.97
2019-02-10T03:06:24.087Z,11.07
2019-02-10T03:08:55.480Z,5.70
2019-02-10T03:11:26.830Z,9.83
2019-02-10T03:13:58.271Z,9.13
2019-02-10T03:16:33.292Z,9.70
2019-02-10T03:19:04.685Z,9.60
2019-02-10T03:21:38.258Z,8.70
2019-02-10T03:24:13.987Z,7.90
2019-02-10T03:26:49.387Z,9.60
2019-02-10T03:29:20.718Z,7.50
2019-02-10T03:31:53.564Z,7.30
2019-02-10T03:34:28.234Z,8.23
2019-02-10T03:36:59.537Z,8.63
2019-02-10T03:39:32.144Z,10.97
2019-02-10T03:42:04.244Z,11.47
2019-02-10T03:44:35.086Z,10.53
2019-02-10T03:47:07.375Z,11.03
2019-02-10T03:49:37.257Z,15.37
2019-02-10T03:52:07.687Z,9.33
2019-02-10T03:54:37.642Z,6.87
2019-02-10T03:57:12.201Z,10.57
2019-02-10T03:59:45.093Z,7.03
2019-02-10T04:02:16.464Z,13.30
2019-02-10T04:04:47.506Z,11.83
2019-02-10T04:07:18.720Z,8.73
2019-02-10T04:09:50.047Z,11.17
2019-02-10T04:12:21.462Z,9.80
2019-02-10T04:14:52.414Z,16.43
2019-02-10T04:17:27.600Z,10.43
2019-02-10T04:19:59.012Z,11.80
2019-02-10T04:22:31.939Z,10.63
2019-02-10T04:25:04.794Z,9.53
2019-02-10T04:27:38.469Z,15.03
2019-02-10T04:30:10.216Z,14.47
2019-02-10T04:32:40.370Z,12.40
2019-02-10T04:35:12.741Z,8.97
2019-02-10T04:37:46.996Z,9.47
2019-02-10T04:40:19.720Z,9.80
2019-02-10T04:42:55.728Z,9.67
2019-02-10T04:45:28.545Z,10.83
2019-02-10T04:47:58.348Z,15.37
2019-02-10T04:50:30.512Z,9.37
2019-02-10T04:53:00.391Z,11.77
2019-02-10T04:55:30.342Z,11.80
2019-02-10T04:58:00.176Z,14.30
2019-02-10T05:00:31.201Z,12.83
2019-02-10T05:03:02.040Z,8.87
2019-02-10T05:05:32.720Z,10.17
2019-02-10T05:08:03.250Z,10.03
2019-02-10T05:10:38.335Z,11.37
2019-02-10T05:13:14.176Z,10.23
2019-02-10T05:15:47.921Z,8.53
2019-02-10T05:18:17.714Z,8.77
2019-02-10T05:20:47.563Z,7.83
2019-02-10T05:23:17.415Z,7.60
2019-02-10T05:25:47.219Z,11.00
2019-02-10T05:28:17.201Z,9.63
2019-02-10T05:30:47.684Z,11.67
2019-02-10T05:33:18.386Z,11.30
2019-02-10T05:35:50.432Z,8.70
2019-02-10T05:38:27.610Z,11.90
2019-02-10T05:40:57.524Z,9.00
2019-02-10T05:43:28.972Z,11.30
2019-02-10T05:45:59.852Z,7.83
2019-02-10T05:48:29.690Z,8.80
2019-02-10T05:51:00.521Z,12.73
2019-02-10T05:53:31.650Z,12.07
2019-02-10T05:56:06.440Z,9.57
2019-02-10T05:58:37.042Z,7.37
2019-02-10T06:01:43.151Z,6.90
2019-02-10T06:04:12.939Z,10.70
2019-02-10T06:06:43.909Z,14.33
2019-02-10T06:09:21.062Z,9.47
2019-02-10T06:11:56.098Z,10.53
2019-02-10T06:14:27.997Z,10.40
2019-02-10T06:16:58.619Z,9.40
2019-02-10T06:19:28.653Z,8.47
2019-02-10T06:21:58.497Z,11.03
2019-02-10T06:24:34.260Z,11.67
2019-02-10T06:27:06.894Z,9.87
2019-02-10T06:29:36.853Z,9.37
2019-02-10T06:32:06.665Z,10.47
2019-02-10T06:34:42.666Z,5.63
2019-02-10T06:37:14.534Z,6.40
2019-02-10T06:39:44.393Z,6.87
2019-02-10T06:42:15.742Z,6.43
2019-02-10T06:44:47.443Z,10.13
2019-02-10T06:47:18.581Z,10.70
2019-02-10T06:49:58.451Z,7.50
2019-02-10T06:52:25.250Z,7.73
2019-02-10T06:54:56.259Z,8.70
2019-02-10T06:57:27.067Z,8.40
2019-02-10T07:00:07.464Z,6.57
2019-02-10T07:02:57.733Z,8.97
2019-02-10T07:05:29.247Z,6.60
2019-02-10T07:07:59.512Z,6.93
2019-02-10T07:10:29.827Z,6.83
2019-02-10T07:13:00.380Z,6.23
2019-02-10T07:16:04.337Z,7.30
2019-02-10T07:19:10.639Z,7.83
2019-02-10T07:21:42.702Z,7.40
2019-02-10T07:24:38.745Z,9.40
2019-02-10T07:27:20.637Z,7.80
2019-02-10T07:30:05.183Z,9.60
2019-02-10T07:33:07.565Z,10.17
2019-02-10T07:35:48.413Z,8.07
2019-02-10T07:38:38.483Z,12.43
2019-02-10T07:41:18.033Z,4.70
2019-02-10T07:44:08.081Z,8.97
2019-02-10T07:47:05.825Z,9.83
2019-02-10T07:49:48.041Z,8.27
2019-02-10T07:52:51.477Z,7.17
2019-02-10T07:55:44.349Z,8.23
2019-02-10T07:58:22.943Z,8.33
2019-02-10T08:01:06.062Z,6.60
2019-02-10T08:03:56.857Z,9.63
2019-02-10T08:06:36.846Z,10.90
2019-02-10T08:09:21.369Z,11.47
2019-02-10T08:12:14.999Z,13.37
2019-02-10T08:18:09.325Z,10.83
2019-02-10T08:21:04.083Z,13.57
2019-02-10T08:23:49.977Z,11.43
2019-02-10T08:26:37.735Z,9.17
2019-02-10T08:29:14.482Z,9.17
2019-02-10T08:32:12.548Z,8.70
2019-02-10T08:35:16.831Z,8.23
2019-02-10T08:38:14.232Z,7.43
2019-02-10T08:41:08.088Z,8.57
2019-02-10T08:43:41.461Z,8.60
2019-02-10T08:46:54.580Z,12.70
2019-02-10T08:49:55.504Z,10.03
2019-02-10T08:52:52.013Z,7.80
2019-02-10T08:58:43.776Z,8.87
2019-02-10T09:01:37.678Z,9.27
2019-02-10T09:04:36.680Z,11.10
2019-02-10T09:07:25.959Z,9.00
2019-02-10T09:16:24.572Z,11.83
2019-02-10T09:18:55.379Z,9.00
2019-02-10T09:21:31.957Z,7.97
2019-02-10T09:24:12.109Z,11.90
2019-02-10T09:26:49.416Z,11.23
2019-02-10T09:32:28.011Z,12.17
2019-02-10T09:38:00.180Z,8.60
2019-02-10T09:40:34.814Z,9.33
2019-02-10T09:43:06.349Z,10.57
2019-02-10T09:45:45.617Z,9.93
2019-02-10T09:48:20.085Z,8.97
2019-02-10T09:50:49.969Z,6.23
2019-02-10T09:53:23.808Z,14.63
2019-02-10T09:55:58.009Z,8.60
2019-02-10T09:58:31.361Z,9.80
2019-02-10T10:01:01.194Z,9.03
2019-02-10T10:03:32.525Z,8.57
2019-02-10T10:06:03.881Z,7.83
2019-02-10T10:08:34.501Z,9.70
2019-02-10T10:11:04.374Z,8.07
2019-02-10T10:13:37.430Z,7.50
2019-02-10T10:16:12.869Z,9.93
2019-02-10T10:18:44.272Z,6.47
2019-02-10T10:21:15.100Z,6.03
2019-02-10T10:23:45.535Z,9.83
2019-02-10T10:26:16.933Z,8.73
2019-02-10T10:28:46.752Z,8.53
2019-02-10T10:31:17.984Z,11.10
2019-02-10T10:33:47.898Z,9.40
2019-02-10T10:36:22.898Z,13.53
2019-02-10T10:38:52.747Z,10.77
2019-02-10T10:41:23.996Z,9.33
2019-02-10T10:43:57.733Z,7.60
2019-02-10T10:46:30.963Z,8.73
2019-02-10T10:49:04.974Z,8.63
2019-02-10T10:51:36.522Z,13.00
2019-02-10T10:57:04.930Z,10.27
2019-02-10T10:59:38.350Z,11.10
2019-02-10T11:02:13.772Z,7.53
2019-02-10T11:04:44.245Z,11.67
2019-02-10T11:07:18.869Z,12.30
2019-02-10T11:09:50.558Z,13.70
2019-02-10T11:12:21.888Z,8.53
2019-02-10T11:14:51.748Z,11.97
2019-02-10T11:17:21.584Z,12.97
2019-02-10T11:19:53.558Z,10.20
2019-02-10T11:22:24.439Z,7.13
2019-02-10T11:24:54.521Z,8.17
2019-02-10T11:27:26.979Z,11.63
2019-02-10T11:29:57.027Z,10.13
2019-02-10T11:32:33.507Z,9.10
2019-02-10T11:35:05.265Z,13.80
2019-02-10T11:37:41.223Z,10.37
2019-02-10T11:40:15.573Z,10.97
2019-02-10T11:42:47.937Z,10.00
2019-02-10T11:45:17.780Z,11.03
2019-02-10T11:47:47.635Z,13.03
2019-02-10T11:50:17.523Z,8.30
2019-02-10T11:52:49.045Z,10.37
2019-02-10T11:55:20.583Z,9.53
2019-02-10T11:57:52.595Z,13.23
2019-02-10T12:00:23.737Z,11.93
2019-02-10T12:02:57.939Z,9.60
2019-02-10T12:21:43.642Z,13.30
2019-02-10T12:24:16.336Z,15.37
2019-02-10T12:26:53.502Z,10.00
2019-02-10T12:29:40.162Z,11.30
2019-02-10T12:35:04.043Z,11.63
2019-02-10T12:37:33.854Z,12.60
2019-02-10T12:40:04.077Z,13.57
2019-02-10T12:42:35.365Z,10.80
2019-02-10T12:45:08.279Z,17.43
2019-02-10T12:47:40.189Z,15.13
2019-02-10T12:50:14.998Z,12.00
2019-02-10T12:52:47.546Z,11.40
2019-02-10T12:55:20.131Z,17.33
2019-02-10T12:57:52.189Z,17.10
2019-02-10T13:00:33.198Z,14.70
2019-02-10T13:03:10.147Z,12.03
2019-02-10T13:05:44.155Z,13.03
2019-02-10T13:08:18.463Z,13.23
2019-02-10T13:10:55.284Z,16.90
2019-02-10T13:13:29.584Z,19.27
2019-02-10T13:16:05.161Z,9.60
2019-02-10T13:18:40.890Z,12.20
2019-02-10T13:21:14.394Z,13.93
2019-02-10T13:23:58.800Z,11.07
2019-02-10T13:26:27.454Z,13.20
2019-02-10T13:29:10.474Z,12.00
2019-02-10T13:31:46.622Z,11.47
2019-02-10T13:34:21.739Z,12.20
2019-02-10T13:36:58.521Z,12.27
2019-02-10T13:39:35.571Z,12.27
2019-02-10T13:42:14.780Z,12.70
2019-02-10T13:44:55.008Z,15.17
2019-02-10T13:47:26.094Z,18.23
2019-02-10T13:49:59.866Z,18.43
2019-02-10T13:52:31.252Z,16.27
2019-02-10T13:55:04.639Z,17.70
2019-02-10T13:57:38.937Z,15.93
2019-02-10T14:00:21.167Z,20.80
2019-02-10T14:02:53.883Z,16.67
2019-02-10T14:05:25.243Z,21.87
2019-02-10T14:08:03.137Z,17.60
2019-02-10T14:10:36.748Z,18.70
2019-02-10T14:13:11.668Z,21.77
2019-02-10T14:15:43.884Z,17.00
2019-02-10T14:18:23.289Z,19.53
2019-02-10T14:21:13.660Z,22.33
2019-02-10T14:23:53.733Z,23.70
2019-02-10T14:26:26.347Z,16.67
2019-02-10T14:29:30.828Z,21.43
2019-02-10T14:32:02.699Z,21.87
2019-02-10T14:34:38.224Z,20.90
2019-02-10T14:37:11.696Z,21.37
2019-02-10T14:39:42.816Z,19.37
2019-02-10T14:42:14.969Z,20.70
2019-02-10T14:44:50.086Z,19.47
2019-02-10T14:47:41.598Z,21.10
2019-02-10T14:50:15.315Z,20.83
2019-02-10T14:52:53.476Z,19.40
2019-02-10T14:55:24.335Z,24.80
2019-02-10T14:57:55.751Z,23.00
2019-02-10T15:00:26.598Z,27.93
2019-02-10T15:02:56.612Z,23.47
2019-02-10T15:05:28.970Z,22.53
2019-02-10T15:08:02.219Z,22.23
2019-02-10T15:10:41.521Z,25.53
2019-02-10T15:13:05.044Z,27.73
2019-02-10T15:15:39.966Z,25.27
2019-02-10T15:18:12.396Z,23.37
2019-02-10T15:20:47.818Z,26.87
2019-02-10T15:23:27.143Z,28.77
2019-02-10T15:25:58.866Z,27.27
2019-02-10T15:28:30.743Z,26.80
2019-02-10T15:31:02.150Z,24.90
2019-02-10T15:33:42.386Z,38.30
2019-02-10T15:36:20.218Z,30.40
2019-02-10T15:38:55.400Z,26.57
2019-02-10T15:41:25.313Z,34.37
2019-02-10T15:43:56.099Z,32.97
2019-02-10T15:46:26.508Z,28.93
2019-02-10T15:48:57.689Z,29.97
2019-02-10T15:51:36.722Z,32.60
2019-02-10T15:56:52.830Z,30.37
2019-02-10T15:59:35.943Z,28.73
2019-02-10T16:02:13.452Z,30.20
2019-02-10T16:05:44.072Z,33.77
2019-02-10T16:10:34.229Z,31.27
2019-02-10T16:13:09.071Z,31.57
2019-02-10T16:15:52.801Z,36.63
2019-02-10T16:18:48.358Z,35.97
2019-02-10T16:21:15.073Z,38.30
2019-02-10T16:23:49.505Z,37.77
2019-02-10T16:26:22.711Z,36.67
2019-02-10T16:28:54.822Z,39.00
2019-02-10T16:31:27.196Z,38.37
2019-02-10T16:34:04.952Z,43.47
2019-02-10T16:36:39.071Z,39.07
2019-02-10T16:39:12.882Z,41.93
2019-02-10T16:41:43.113Z,39.10
2019-02-10T16:44:17.483Z,45.13
2019-02-10T16:46:57.249Z,45.10
2019-02-10T16:49:33.495Z,40.33
2019-02-10T16:52:03.413Z,40.97
2019-02-10T16:54:38.876Z,43.83
2019-02-10T16:57:11.267Z,46.90
2019-02-10T16:59:42.787Z,43.87
2019-02-10T17:02:20.869Z,45.20
2019-02-10T17:04:54.849Z,52.83
2019-02-10T17:07:26.823Z,48.50
2019-02-10T17:10:02.103Z,48.47
2019-02-10T17:12:37.982Z,45.63
2019-02-10T17:15:23.226Z,47.00
2019-02-10T17:17:54.683Z,48.23
2019-02-10T17:20:25.964Z,49.17
2019-02-10T17:22:55.810Z,53.27
2019-02-10T17:25:32.938Z,46.27
2019-02-10T17:28:05.354Z,45.33
2019-02-10T17:30:36.537Z,45.87
2019-02-10T17:33:06.357Z,48.23
2019-02-10T17:35:36.226Z,45.43
2019-02-10T17:41:37.202Z,43.53
2019-02-10T17:44:08.214Z,44.60
2019-02-10T17:46:38.097Z,47.37
2019-02-10T17:52:31.880Z,47.07
2019-02-10T17:54:58.975Z,47.73
2019-02-10T17:57:29.932Z,45.40
2019-02-10T18:00:02.048Z,44.33
2019-02-10T18:02:33.907Z,42.17
2019-02-10T18:05:04.191Z,49.10
2019-02-10T18:07:35.180Z,48.30
2019-02-10T18:10:08.950Z,44.60
2019-02-10T18:13:15.745Z,49.77
2019-02-10T18:15:57.496Z,51.00
2019-02-10T18:18:51.298Z,47.97
2019-02-10T18:21:32.524Z,52.13
2019-02-10T18:24:10.732Z,49.90
2019-02-10T18:26:43.706Z,50.13
2019-02-10T18:29:36.672Z,49.93
2019-02-10T18:32:11.706Z,46.40
2019-02-10T18:34:59.668Z,51.00
2019-02-10T18:37:31.098Z,49.50
2019-02-10T18:40:08.641Z,50.77
2019-02-10T18:42:51.975Z,50.03
2019-02-10T18:45:23.327Z,56.53
2019-02-10T18:47:57.411Z,46.67
2019-02-10T18:50:34.866Z,49.47
2019-02-10T18:53:15.353Z,50.13
2019-02-10T18:55:52.805Z,49.83
2019-02-10T18:58:27.144Z,49.00
2019-02-10T19:01:11.655Z,46.73
2019-02-10T19:03:46.046Z,47.90
2019-02-10T19:06:26.422Z,51.73
2019-02-10T19:09:07.832Z,55.73
2019-02-10T19:11:47.306Z,52.03
2019-02-10T19:14:16.221Z,49.43
2019-02-10T19:16:50.842Z,47.33
2019-02-10T19:19:30.326Z,51.93
2019-02-10T19:22:04.478Z,54.70
2019-02-10T19:24:45.317Z,50.07
2019-02-10T19:27:18.282Z,49.90
2019-02-10T19:30:08.182Z,48.20
2019-02-10T19:32:45.345Z,46.47
2019-02-10T19:35:33.471Z,51.53
2019-02-10T19:38:07.887Z,51.73
2019-02-10T19:40:49.164Z,49.20
2019-02-10T19:43:32.588Z,47.77
2019-02-10T19:46:05.691Z,49.93
2019-02-10T19:48:53.324Z,49.37
2019-02-10T19:51:31.095Z,55.60
2019-02-10T19:54:08.342Z,52.50
2019-02-10T19:56:46.156Z,52.37
2019-02-10T19:59:20.536Z,47.10
2019-02-10T20:02:02.181Z,53.27
2019-02-10T20:04:38.356Z,53.57
2019-02-10T20:07:12.825Z,50.53
2019-02-10T20:09:50.137Z,51.87
2019-02-10T20:12:35.511Z,55.33
2019-02-10T20:15:27.041Z,48.77
2019-02-10T20:18:11.822Z,48.80
2019-02-10T20:20:48.361Z,53.93
2019-02-10T20:23:21.965Z,51.83
2019-02-10T20:26:02.020Z,45.73
2019-02-10T20:28:36.365Z,52.10
2019-02-10T20:31:27.604Z,47.17
2019-02-10T20:34:05.143Z,44.47
2019-02-10T20:36:36.651Z,48.97
2019-02-10T20:39:09.591Z,53.87
2019-02-10T20:41:49.783Z,49.10
2019-02-10T20:44:24.974Z,48.20
2019-02-10T20:46:59.913Z,45.57
2019-02-10T20:49:34.630Z,58.17
2019-02-10T20:52:10.958Z,48.90
2019-02-10T20:54:48.795Z,45.50
2019-02-10T20:57:30.829Z,46.17
2019-02-10T21:00:05.135Z,46.53
2019-02-10T21:02:45.125Z,51.57
2019-02-10T21:05:34.631Z,53.30
2019-02-10T21:08:26.501Z,52.87
2019-02-10T21:11:09.620Z,48.17
2019-02-10T21:13:57.354Z,48.83
2019-02-10T21:16:31.694Z,54.87
2019-02-10T21:19:06.180Z,43.53
2019-02-10T21:21:52.333Z,47.20
2019-02-10T21:24:32.769Z,47.23
2019-02-10T21:27:07.521Z,51.77
2019-02-10T21:29:43.042Z,46.57
2019-02-10T21:32:31.535Z,46.10
2019-02-10T21:35:18.039Z,54.27
2019-02-10T21:38:07.134Z,55.57
2019-02-10T21:40:38.563Z,52.47
2019-02-10T21:43:10.370Z,56.37
2019-02-10T21:45:44.704Z,49.40
2019-02-10T21:48:16.106Z,62.47
2019-02-10T21:50:47.260Z,60.23
2019-02-10T21:53:18.517Z,56.87
2019-02-10T21:55:49.635Z,60.57
2019-02-10T21:58:19.528Z,63.83
2019-02-10T22:00:51.979Z,61.03
2019-02-10T22:03:21.787Z,54.63
2019-02-10T22:05:51.630Z,53.47
2019-02-10T22:08:21.470Z,58.47
2019-02-10T22:10:51.326Z,60.40
2019-02-10T22:13:22.600Z,53.87
2019-02-10T22:15:53.614Z,66.47
2019-02-10T22:18:26.168Z,54.23
2019-02-10T22:20:58.220Z,62.43
2019-02-10T22:23:29.402Z,54.97
2019-02-10T22:26:02.380Z,64.50
2019-02-10T22:28:32.720Z,55.70
2019-02-10T22:31:05.305Z,60.13
2019-02-10T22:33:35.570Z,60.20
2019-02-10T22:36:05.600Z,58.80
2019-02-10T22:38:36.188Z,55.80
2019-02-10T22:41:07.086Z,63.43
2019-02-10T22:43:39.477Z,56.33
2019-02-10T22:46:11.901Z,57.30
2019-02-10T22:48:41.784Z,58.10
2019-02-10T22:51:13.104Z,60.10
2019-02-10T22:53:53.047Z,54.63
2019-02-10T22:56:23.012Z,56.63
2019-02-10T22:58:53.441Z,58.10
2019-02-10T23:01:23.412Z,57.53
2019-02-10T23:03:58.206Z,52.40
2019-02-10T23:06:28.476Z,59.77
2019-02-10T23:09:00.308Z,61.50
2019-02-10T23:11:30.132Z,56.07
2019-02-10T23:13:59.992Z,59.53
2019-02-10T23:16:30.357Z,59.23
2019-02-10T23:19:00.204Z,49.83
2019-02-10T23:21:30.040Z,58.00
2019-02-10T23:24:02.614Z,52.70
2019-02-10T23:26:32.427Z,51.97
2019-02-10T23:29:02.258Z,52.73
2019-02-10T23:31:37.881Z,58.37
2019-02-10T23:34:11.258Z,55.83
2019-02-10T23:36:44.110Z,53.17
2019-02-10T23:39:22.898Z,47.93
2019-02-10T23:41:55.429Z,49.73
2019-02-10T23:44:29.902Z,49.47
2019-02-10T23:47:04.361Z,52.50
2019-02-10T23:49:35.234Z,51.53
2019-02-10T23:52:06.592Z,54.43
2019-02-10T23:54:37.570Z,47.23
2019-02-10T23:57:09.136Z,48.83
2019-02-10T23:59:40.959Z,48.47
